WEATHER DATA

YESTERDAY
Time Temp. Dewp. Hum. Wind dir Wind speed Wind gust Bar. 1h Prec. 24h Prec.
00:05 0.3 0.2 99 315 0.3 0.8 994 0.0000 0.0000
00:16 0.3 0.2 99 317 0.3 0.8 994 0.0000 0.0000
00:36 0.4 0.3 99 329 0.3 0.8 994 0.0000 0.0000
00:46 0.3 0.2 99 343 0.3 0.8 994.1 0.0000 0.0000
00:56 0.3 0.2 99 330 0.3 1.1 994 0.0000 0.0000
01:07 0.4 0.3 99 327 0.3 1.1 994 0.0000 0.0000
01:17 0.6 0.5 99 337 0.3 1.1 994 0.0000 0.0000
01:27 0.6 0.5 99 340 0.3 1.1 994 0.0000 0.0000
01:37 0.6 0.5 99 336 0.3 1.1 994 0.0000 0.0000
01:47 0.5 0.4 99 2 0.8 1.1 994.1 0.0000 0.0000
01:57 0.5 0.4 99 345 0.3 0.8 994.1 0.0000 0.0000
02:08 0.6 0.5 99 332 0.8 1.1 994.1 0.0000 0.0000
02:18 0.6 0.5 99 351 0.3 1.1 994.2 0.0000 0.0000
02:27 0.7 0.6 99 315 0.3 0.8 994.3 0.0000 0.0000
02:37 0.8 0.7 99 319 0.8 1.4 994.4 0.0000 0.0000
02:48 0.9 0.8 99 331 0.8 1.4 994.5 0.0000 0.0000
02:58 1 0.9 99 335 0.8 1.1 994.6 0.0000 0.0000
03:08 1 0.9 99 327 0.8 1.4 994.6 0.0000 0.0000
03:19 1 0.9 99 330 0.3 1.1 994.7 0.0000 0.0000
03:28 1 0.9 99 322 0.8 1.4 994.8 0.0000 0.0000
03:38 1 0.9 99 335 0.8 1.1 994.9 0.0000 0.0000
03:48 0.8 0.7 99 357 0.3 1.1 995.1 0.0000 0.0000
03:59 0.7 0.6 99 343 0.3 0.8 995.2 0.0000 0.0000
04:09 0.6 0.5 99 334 0.3 0.8 995.3 0.0000 0.0000
04:19 0.7 0.6 99 338 0.3 0.8 995.5 0.0000 0.0000
04:29 0.8 0.7 99 327 1.4 3.3 995.6 0.0000 0.0000
04:39 1.1 1 99 331 1.7 3.6 995.7 0.0000 0.0000
04:49 1.2 1.1 99 331 2.2 4.4 995.7 0.0000 0.0000
04:59 1.2 1.1 99 337 1.7 2.8 995.7 0.1010 0.1000
05:10 1.1 1 99 315 0.8 1.4 995.8 0.1010 0.1000
05:20 1.1 1 99 270 0.3 1.1 995.8 0.1010 0.1000
05:29 1.1 1 99 270 0.3 1.4 995.9 0.1010 0.1000
05:40 1.1 1 99 270 0.3 1.1 996.1 0.1010 0.1000
05:50 1.2 1.1 99 289 0.8 2.2 996.3 0.0000 0.1000
06:00 1.3 1.2 99 270 0.3 1.7 996.2 0.0000 0.1000
06:10 1.4 1.3 99 270 0.3 1.7 996.3 0.0000 0.1000
06:21 1.4 1.3 99 307 0.8 1.7 996.2 0.0000 0.1000
06:30 1.2 1.1 99 335 0.8 1.7 996.3 0.0000 0.1000
06:40 1.2 1.1 99 334 0.3 1.4 996.4 0.0000 0.1000
06:50 1.1 1 99 310 0.3 1.4 996.4 0.0000 0.1000
07:01 1 0.9 99 270 0.3 0.8 996.5 0.0000 0.1000
07:11 0.9 0.8 99 329 0.3 1.1 996.6 0.0000 0.1000
07:20 0.7 0.6 99 309 0.3 0.8 996.7 0.0000 0.1000
07:31 0.7 0.6 99 326 0.3 1.1 996.8 0.0000 0.1000
07:41 0.6 0.5 99 332 0.3 1.1 997 0.0000 0.1000
07:51 0.3 0.2 99 0 0.8 1.1 997.2 0.0000 0.1000
08:01 0 -0.1 99 323 0.3 0.8 997.2 0.0000 0.1000
08:11 -0.2 -0.3 99 0 0.8 997.4 0.0000 0.1000
08:21 -0.6 -0.7 99 233 0.3 0.8 997.6 0.0000 0.1000
08:31 -0.8 -0.9 99 229 0.3 0.8 997.7 0.0000 0.1000
08:41 -0.5 -0.6 99 270 0.3 1.4 997.9 0.0000 0.1000
08:52 0.1 0 99 270 0.3 2.5 997.9 0.1010 0.2000
09:01 0.1 0 99 225 0.3 1.4 998 0.1010 0.2000
09:11 0 -0.1 99 225 0.3 1.4 998 0.1010 0.2000
09:22 -0.1 -0.2 99 227 0.8 1.4 998 0.1010 0.2000
09:32 -0.3 -0.4 99 225 0.8 1.1 998.2 0.1010 0.2000
09:42 -0.2 -0.3 99 221 0.3 1.1 998.2 0.1010 0.2000
09:52 0 -0.1 99 270 0.3 0.8 998.3 0.0000 0.2000
10:02 0.3 0.2 99 225 0.3 1.1 998.4 0.0000 0.2000
10:12 0.6 0.5 99 229 0.3 1.4 998.5 0.1010 0.3000
10:22 1 0.9 99 270 0.3 1.1 998.6 0.1010 0.3000
10:33 1.3 1.2 99 270 0.3 1.1 998.6 0.1010 0.3000
10:42 1.8 1.7 99 270 0.3 1.7 998.8 0.1010 0.3000
10:52 2.4 2.3 99 241 0.8 2.8 998.8 0.1010 0.3000
11:02 2.4 2.3 99 306 0.3 1.7 999 0.1010 0.3000
11:13 2.4 2.3 99 328 0.8 1.4 999.1 0.0000 0.3000
11:23 3 2.9 99 333 1.7 3.3 999.1 0.0000 0.3000
11:33 2.8 2.7 99 333 2.2 4.4 999.1 0.0000 0.3000
11:53 2.8 2.7 99 330 0.3 0.8 999 0.0000 0.3000
12:03 3.2 3.1 99 225 0.8 1.4 999 0.0000 0.3000
12:13 3.8 3.7 99 219 0.8 1.4 998.9 0.0000 0.3000
12:24 4.4 4.3 99 233 0.8 2.2 998.9 0.0000 0.3000
12:34 4.9 4.8 99 217 1.1 2.2 999 0.0000 0.3000
12:43 5.2 5.1 99 234 0.8 1.7 999 0.0000 0.3000
12:54 5.4 5.3 99 225 1.7 3.3 999 0.0000 0.3000
13:04 5.1 5 99 229 0.8 2.2 999 0.0000 0.3000
13:14 4.7 4.6 99 0 0.8 999 0.0000 0.3000
13:23 4.3 4.2 99 333 0.3 0.8 998.9 0.0000 0.3000
13:34 4.1 4 99 270 0.3 0.8 998.9 0.0000 0.3000
13:44 4.1 4 99 270 0.3 1.4 998.9 0.0000 0.3000
13:54 4.2 4.1 99 270 0.3 1.4 998.8 0.0000 0.3000
14:04 4.3 4 98 270 0.3 1.1 998.8 0.0000 0.3000
14:14 4.4 3.8 96 270 0.3 1.7 998.9 0.0000 0.3000
14:24 4.4 3.4 93 270 0.3 2.2 998.9 0.0000 0.3000
14:34 4.3 3.1 92 232 0.8 2.2 998.8 0.0000 0.3000
14:45 4.2 3 92 220 1.7 2.8 998.7 0.0000 0.3000
14:55 4.1 2.9 92 220 1.1 2.8 998.7 0.0000 0.3000
15:05 3.9 2.7 92 225 1.1 2.5 998.8 0.0000 0.3000
15:15 3.8 2.8 93 216 0.8 1.4 998.7 0.0000 0.3000
15:25 3.6 2.6 93 231 0.3 1.7 998.7 0.0000 0.3000
15:35 3.5 2.6 94 225 1.1 2.2 998.7 0.0000 0.3000
15:45 3.4 2.5 94 228 0.3 1.1 998.7 0.0000 0.3000
15:56 3.2 2.5 95 218 0.3 1.1 998.7 0.0000 0.3000
16:05 3 2.3 95 217 1.1 1.7 998.7 0.0000 0.3000
16:15 3 2.3 95 218 1.1 3.6 998.8 0.0000 0.3000
16:25 2.9 2.2 95 212 1.4 2.2 998.8 0.0000 0.3000
16:36 2.7 2 95 219 1.1 2.2 998.8 0.0000 0.3000
16:46 2.5 1.8 95 210 0.3 1.1 998.8 0.0000 0.3000
16:56 2.3 1.6 95 216 0.8 1.1 998.8 0.0000 0.3000
17:06 2 1.3 95 218 0.3 1.1 998.8 0.0000 0.3000
17:16 1.8 1.2 96 201 0.3 1.1 998.8 0.0000 0.3000
17:26 1.6 1 96 188 0.8 1.1 998.7 0.0000 0.3000
17:36 1.5 0.9 96 191 1.4 2.8 998.8 0.0000 0.3000
17:47 1.4 1 97 189 1.4 2.5 998.8 0.0000 0.3000
17:56 1.4 1 97 177 1.1 2.2 998.7 0.0000 0.3000
18:06 1.3 0.9 97 182 1.1 1.4 998.7 0.0000 0.3000
18:17 1.2 0.9 98 184 1.4 1.7 998.6 0.0000 0.3000
18:27 1 0.7 98 193 1.1 1.7 998.7 0.0000 0.3000
18:37 0.8 0.5 98 199 1.7 2.8 998.7 0.0000 0.3000
18:47 0.7 0.4 98 175 0.8 1.1 998.7 0.0000 0.3000
18:57 0.6 0.5 99 177 0.8 1.4 998.6 0.0000 0.3000
19:07 0.6 0.5 99 177 0.8 1.7 998.6 0.0000 0.3000
19:17 0.6 0.5 99 173 0.8 1.4 998.6 0.0000 0.3000
19:27 0.6 0.5 99 180 0.8 1.1 998.6 0.0000 0.3000
19:38 0.6 0.5 99 174 0.8 1.1 998.6 0.0000 0.3000
19:47 0.6 0.5 99 164 0.3 1.1 998.6 0.0000 0.3000
19:57 0.5 0.4 99 149 0.3 1.1 998.5 0.0000 0.3000
20:08 0.5 0.4 99 145 0.3 0.8 998.5 0.0000 0.3000
20:18 0.4 0.3 99 0 0.8 998.5 0.0000 0.3000
20:28 0.4 0.3 99 171 0.3 0.8 998.5 0.0000 0.3000
20:38 0.3 0.2 99 146 0.8 1.1 998.4 0.0000 0.3000
20:48 0.3 0.2 99 146 0.8 1.4 998.3 0.0000 0.3000
20:58 0.1 0 99 154 0.8 1.4 998.3 0.0000 0.3000
21:08 0 -0.1 99 173 1.1 2.2 998.4 0.0000 0.3000
21:19 -0.1 -0.2 99 138 0.8 1.1 998.4 0.0000 0.3000
21:29 -0.3 -0.4 99 144 0.3 1.1 998.4 0.0000 0.3000
21:38 -0.4 -0.5 99 180 0.8 1.7 998.4 0.0000 0.3000
21:48 -0.5 -0.6 99 171 0.3 1.1 998.4 0.0000 0.3000
21:59 -0.6 -0.7 99 135 0.3 1.1 998.4 0.0000 0.3000
22:09 -0.7 -0.8 99 169 0.3 1.1 998.4 0.0000 0.3000
22:19 -0.9 -1 99 155 0.8 1.4 998.3 0.0000 0.3000
22:29 -0.9 -1 99 142 0.8 1.4 998.3 0.0000 0.3000
22:39 -0.8 -0.9 99 150 0.3 1.1 998.3 0.0000 0.3000
22:49 -0.7 -0.8 99 0 0.8 998.3 0.0000 0.3000
22:59 -0.8 -0.9 99 320 0.3 0.8 998.4 0.0000 0.3000
23:11 -0.7 -0.8 99 0 0.3 998.4 0.0000 0.3000
23:22 -0.6 -0.7 99 0 0.8 998.4 0.0000 0.3000
23:31 -0.6 -0.7 99 0 0.8 998.4 0.0000 0.3000
23:41 -0.6 -0.7 99 90 0.3 0.8 998.5 0.0000 0.3000
23:52 -0.6 -0.7 99 332 0.8 1.1 998.6 0.0000 0.3000

DAY STATISTIC

2021-01-24
TEMPERATURE
AVERAGE
1.3
HIGH
5.4
12:54
LOW
-0.9
22:19
PRESSURE
AVERAGE
997.5
HIGH
999.1
11:13
LOW
994.0
00:05
DEWPOINT
AVERAGE
1.1
HIGH
5.3
12:54
LOW
-1.0
22:19
HUMIDITY
AVERAGE
98
HIGH
99
00:05
LOW
92
14:34
WIND SPEED
AVERAGE
0.6
HIGH
2.2
04:49
WIND GUST
AVERAGE
1.5
HIGH
4.4
04:49
WIND DIRECTION
PREVAILING
NW
27.9%
N
6.4
NE
0.0
E
0.7
SE
7.9
S
15.0
SW
23.6
W
13.6
NW
27.9
PRECIPITATION
RAIN HOUR
0.1
RAIN DAY
0.3
TEMPERATURE (°C)
LOW
-0.9
HIGH
5.4
AVERAGE
1.3
PRESSURE (hpa)
LOW
994.0
HIGH
999.1
AVERAGE
997.5
DEVICE